Rock Creek, North Carolina
Current Conditions -  °F | °C
As of 4:54 PM on Monday 26 Jan 2015 (Local Time) from KBUY Reporting Station
Overcast Overcast  
Wind Chill: 43°   Ceiling: 7000
Heat Index: 46°   Visibility: 10mi
Dew Point: 38°   Wind: 6mph
Humidity: 73%   Direction: 310°NW
Pressure: 29.61"   Gusts: NA
Location:  35.9026°N, 79.4229°W
Report Text: KBUY 262154Z AUTO 31005KT 10SM OVC070 08/03 A2961 RMK AO2 RAE26 SLP028 P0000 T00780033
Loading
Personal Weather Stations






























Interactive Weather Map New forecast layout! Learn more

10-Day Weather Forecast

Advertisements
Track Severe Weather on mobile